createdAt,value
2019-04-14T00:02:35.845Z,3.10
2019-04-14T00:05:08.257Z,2.90
2019-04-14T00:07:36.974Z,2.90
2019-04-14T00:10:09.627Z,3.00
2019-04-14T00:12:38.469Z,3.00
2019-04-14T00:15:21.175Z,2.90
2019-04-14T00:17:39.582Z,2.90
2019-04-14T00:20:09.466Z,3.00
2019-04-14T00:22:38.183Z,3.00
2019-04-14T00:25:08.662Z,3.10
2019-04-14T00:27:37.486Z,3.00
2019-04-14T00:30:07.572Z,3.00
2019-04-14T00:32:37.963Z,3.00
2019-04-14T00:35:18.782Z,3.00
2019-04-14T00:38:06.278Z,3.00
2019-04-14T00:40:39.299Z,3.00
2019-04-14T00:43:22.043Z,2.90
2019-04-14T00:45:56.371Z,2.90
2019-04-14T00:48:25.850Z,2.90
2019-04-14T00:50:54.510Z,2.80
2019-04-14T00:53:23.160Z,2.70
2019-04-14T00:55:51.726Z,2.70
2019-04-14T00:58:21.361Z,2.70
2019-04-14T01:00:50.311Z,2.60
2019-04-14T01:03:20.064Z,2.70
2019-04-14T01:05:48.610Z,2.60
2019-04-14T01:08:18.379Z,2.50
2019-04-14T01:10:47.647Z,2.50
2019-04-14T01:13:16.305Z,2.40
2019-04-14T01:15:52.638Z,2.40
2019-04-14T01:18:15.198Z,2.40
2019-04-14T01:20:44.877Z,2.50
2019-04-14T01:23:13.572Z,2.50
2019-04-14T01:25:43.154Z,2.50
2019-04-14T01:28:12.161Z,2.50
2019-04-14T01:30:41.553Z,2.50
2019-04-14T01:33:10.215Z,2.50
2019-04-14T01:35:39.922Z,2.50
2019-04-14T01:38:08.579Z,2.60
2019-04-14T01:40:38.066Z,2.60
2019-04-14T01:43:08.002Z,2.60
2019-04-14T01:45:36.695Z,2.60
2019-04-14T01:48:05.995Z,2.60
2019-04-14T01:50:39.031Z,2.70
2019-04-14T01:53:09.662Z,2.70
2019-04-14T01:55:46.262Z,2.70
2019-04-14T01:58:16.515Z,2.70
2019-04-14T02:00:51.164Z,2.70
2019-04-14T02:03:19.951Z,2.70
2019-04-14T02:05:49.625Z,2.70
2019-04-14T02:08:18.307Z,2.70
2019-04-14T02:10:47.844Z,2.70
2019-04-14T02:13:16.720Z,2.60
2019-04-14T02:15:46.492Z,2.50
2019-04-14T02:18:18.558Z,2.50
2019-04-14T02:20:47.211Z,2.40
2019-04-14T02:23:17.005Z,2.40
2019-04-14T02:25:47.185Z,2.50
2019-04-14T02:28:15.856Z,2.40
2019-04-14T02:30:55.956Z,2.40
2019-04-14T02:38:49.238Z,2.20
2019-04-14T02:46:10.380Z,2.20
2019-04-14T02:53:50.119Z,2.10
2019-04-14T02:56:21.765Z,2.10
2019-04-14T03:03:44.046Z,2.20
2019-04-14T03:06:12.089Z,2.20
2019-04-14T03:09:04.611Z,2.30
2019-04-14T03:11:17.127Z,2.30
2019-04-14T03:13:51.557Z,2.40
2019-04-14T03:16:25.845Z,2.40
2019-04-14T03:19:10.435Z,2.40
2019-04-14T03:21:40.457Z,2.40
2019-04-14T03:26:54.492Z,2.30
2019-04-14T03:29:34.754Z,2.20
2019-04-14T03:32:15.119Z,2.20
2019-04-14T03:39:32.030Z,2.30
2019-04-14T03:41:52.799Z,2.20
2019-04-14T03:44:33.109Z,2.20
2019-04-14T03:46:55.682Z,2.30
2019-04-14T03:49:31.790Z,2.30
2019-04-14T03:54:20.089Z,2.30
2019-04-14T03:56:46.780Z,2.30
2019-04-14T03:59:17.366Z,2.40
2019-04-14T04:01:47.755Z,2.30
2019-04-14T04:04:16.479Z,2.40
2019-04-14T04:06:46.297Z,2.30
2019-04-14T04:09:15.081Z,2.40
2019-04-14T04:11:43.752Z,2.40
2019-04-14T04:14:12.397Z,2.30
2019-04-14T04:16:57.714Z,2.40
2019-04-14T04:19:27.918Z,2.40
2019-04-14T04:22:15.038Z,2.40
2019-04-14T04:24:45.502Z,2.30
2019-04-14T04:27:35.152Z,2.40
2019-04-14T04:30:06.097Z,2.30
2019-04-14T04:32:55.817Z,2.40
2019-04-14T04:35:41.475Z,2.30
2019-04-14T04:38:11.871Z,2.40
2019-04-14T04:40:41.758Z,2.30
2019-04-14T04:43:10.511Z,2.40
2019-04-14T04:45:39.072Z,2.40
2019-04-14T04:48:08.779Z,2.40
2019-04-14T04:50:37.468Z,2.50
2019-04-14T04:53:06.955Z,2.50
2019-04-14T04:55:35.630Z,2.50
2019-04-14T04:58:05.536Z,2.50
2019-04-14T05:00:35.301Z,2.50
2019-04-14T05:03:03.906Z,2.60
2019-04-14T05:06:00.357Z,2.50
2019-04-14T05:08:28.948Z,2.50
2019-04-14T05:10:59.176Z,2.50
2019-04-14T05:13:29.140Z,2.50
2019-04-14T05:15:57.806Z,2.50
2019-04-14T05:18:26.803Z,2.50
2019-04-14T05:20:55.537Z,2.50
2019-04-14T05:23:24.025Z,2.50
2019-04-14T05:25:53.766Z,2.60
2019-04-14T05:28:22.389Z,2.50
2019-04-14T05:30:50.993Z,2.50
2019-04-14T05:33:20.633Z,2.50
2019-04-14T05:35:49.312Z,2.40
2019-04-14T05:38:18.963Z,2.40
2019-04-14T05:40:47.661Z,2.50
2019-04-14T05:43:29.201Z,2.50
2019-04-14T05:45:46.554Z,2.60
2019-04-14T05:48:15.985Z,2.60
2019-04-14T05:50:44.707Z,2.60
2019-04-14T05:53:13.325Z,2.60
2019-04-14T05:55:42.210Z,2.60
2019-04-14T05:58:12.086Z,2.70
2019-04-14T06:00:43.664Z,2.70
2019-04-14T06:03:12.471Z,2.60
2019-04-14T06:05:41.052Z,2.70
2019-04-14T06:08:09.613Z,2.70
2019-04-14T06:10:38.249Z,2.80
2019-04-14T06:13:06.820Z,2.70
2019-04-14T06:15:35.959Z,2.80
2019-04-14T06:18:04.944Z,2.70
2019-04-14T06:20:33.693Z,2.80
2019-04-14T06:23:02.331Z,2.90
2019-04-14T06:25:30.941Z,2.80
2019-04-14T06:27:59.592Z,2.90
2019-04-14T06:30:46.253Z,3.00
2019-04-14T06:33:25.657Z,3.00
2019-04-14T06:36:08.138Z,3.00
2019-04-14T06:38:44.512Z,3.00
2019-04-14T06:41:14.870Z,3.00
2019-04-14T06:43:49.129Z,3.00
2019-04-14T06:46:13.826Z,3.00
2019-04-14T06:48:42.413Z,3.00
2019-04-14T06:51:11.146Z,3.00
2019-04-14T06:53:41.357Z,2.90
2019-04-14T06:56:10.027Z,2.90
2019-04-14T06:58:38.657Z,2.80
2019-04-14T07:01:07.313Z,2.80
2019-04-14T07:03:35.931Z,2.90
2019-04-14T07:06:04.553Z,2.80
2019-04-14T07:08:33.119Z,2.80
2019-04-14T07:11:01.750Z,2.90
2019-04-14T07:13:30.295Z,2.90
2019-04-14T07:15:58.893Z,2.90
2019-04-14T07:18:27.465Z,3.00
2019-04-14T07:20:56.107Z,3.00
2019-04-14T07:23:24.793Z,3.10
2019-04-14T07:25:53.397Z,3.20
2019-04-14T07:28:21.965Z,3.30
2019-04-14T07:30:58.313Z,3.40
2019-04-14T07:33:28.593Z,3.40
2019-04-14T07:38:52.436Z,3.60
2019-04-14T07:41:31.428Z,3.50
2019-04-14T07:44:01.884Z,3.60
2019-04-14T07:46:46.940Z,3.70
2019-04-14T07:49:20.115Z,3.80
2019-04-14T07:51:50.303Z,3.70
2019-04-14T07:54:29.528Z,3.80
2019-04-14T07:57:05.516Z,3.80
2019-04-14T07:59:35.747Z,4.00
2019-04-14T08:02:06.002Z,4.10
2019-04-14T08:04:36.288Z,4.40
2019-04-14T08:07:04.912Z,4.70
2019-04-14T08:09:33.491Z,4.80
2019-04-14T08:12:02.328Z,4.90
2019-04-14T08:14:30.835Z,4.90
2019-04-14T08:17:02.594Z,4.90
2019-04-14T08:19:31.236Z,4.80
2019-04-14T08:21:59.788Z,4.90
2019-04-14T08:24:28.388Z,5.00
2019-04-14T08:26:56.969Z,5.00
2019-04-14T08:29:25.532Z,4.90
2019-04-14T08:31:54.110Z,4.90
2019-04-14T08:34:22.716Z,4.90
2019-04-14T08:36:51.287Z,4.90
2019-04-14T08:39:19.910Z,5.00
2019-04-14T08:42:08.247Z,5.10
2019-04-14T08:44:41.143Z,5.20
2019-04-14T08:47:27.708Z,5.10
2019-04-14T08:50:03.950Z,5.10
2019-04-14T08:52:43.371Z,5.10
2019-04-14T08:55:30.281Z,5.30
2019-04-14T08:58:04.266Z,5.70
2019-04-14T09:00:34.575Z,5.90
2019-04-14T09:03:11.785Z,6.10
2019-04-14T09:05:48.029Z,6.30
2019-04-14T09:08:18.255Z,6.40
2019-04-14T09:11:00.771Z,6.60
2019-04-14T09:13:29.356Z,6.70
2019-04-14T09:15:57.983Z,7.10
2019-04-14T09:18:26.565Z,7.50
2019-04-14T09:20:55.120Z,8.10
2019-04-14T09:23:24.067Z,8.70
2019-04-14T09:25:52.575Z,9.60
2019-04-14T09:28:21.154Z,10.10
2019-04-14T09:30:49.742Z,10.40
2019-04-14T09:33:18.390Z,10.30
2019-04-14T09:35:46.964Z,10.00
2019-04-14T09:38:15.520Z,9.70
2019-04-14T09:40:44.214Z,9.30
2019-04-14T09:43:12.771Z,8.90
2019-04-14T09:45:41.339Z,8.90
2019-04-14T09:48:09.895Z,8.90
2019-04-14T09:50:38.472Z,9.70
2019-04-14T09:53:07.171Z,10.90
2019-04-14T09:55:35.907Z,11.10
2019-04-14T09:58:04.631Z,10.90
2019-04-14T10:00:34.938Z,11.10
2019-04-14T10:03:03.511Z,11.50
2019-04-14T10:05:32.068Z,12.30
2019-04-14T10:08:00.986Z,12.70
2019-04-14T10:10:29.546Z,12.80
2019-04-14T10:12:58.207Z,13.30
2019-04-14T10:15:27.094Z,14.10
2019-04-14T10:17:55.787Z,14.50
2019-04-14T10:20:24.414Z,15.10
2019-04-14T10:22:53.095Z,15.80
2019-04-14T10:25:21.658Z,16.90
2019-04-14T10:27:50.237Z,16.90
2019-04-14T10:30:18.877Z,15.60
2019-04-14T10:32:47.550Z,15.40
2019-04-14T10:35:16.115Z,15.10
2019-04-14T10:37:46.520Z,16.20
2019-04-14T10:40:15.315Z,17.20
2019-04-14T10:42:43.874Z,17.70
2019-04-14T10:45:12.864Z,17.10
2019-04-14T10:47:41.483Z,15.30
2019-04-14T10:50:10.298Z,14.80
2019-04-14T10:52:38.931Z,14.20
2019-04-14T10:55:08.201Z,13.70
2019-04-14T10:57:37.165Z,13.20
2019-04-14T11:00:08.907Z,13.00
2019-04-14T11:02:37.475Z,12.50
2019-04-14T11:05:07.786Z,12.30
2019-04-14T11:07:36.359Z,12.20
2019-04-14T11:10:07.736Z,12.30
2019-04-14T11:12:36.749Z,12.40
2019-04-14T11:15:08.056Z,12.90
2019-04-14T11:17:36.796Z,13.00
2019-04-14T11:20:08.869Z,13.10
2019-04-14T11:22:37.446Z,13.10
2019-04-14T11:25:07.543Z,13.40
2019-04-14T11:27:36.118Z,13.70
2019-04-14T11:30:08.346Z,13.60
2019-04-14T11:32:56.911Z,13.40
2019-04-14T11:35:29.759Z,13.30
2019-04-14T11:38:00.076Z,13.50
2019-04-14T11:40:36.537Z,13.70
2019-04-14T11:43:05.527Z,14.10
2019-04-14T11:45:34.146Z,14.20
2019-04-14T11:48:03.051Z,14.00
2019-04-14T11:50:31.666Z,14.00
2019-04-14T11:53:00.226Z,13.90
2019-04-14T11:55:28.808Z,13.90
2019-04-14T11:57:57.384Z,13.90
2019-04-14T12:00:30.287Z,13.70
2019-04-14T12:03:02.996Z,13.40
2019-04-14T12:05:49.383Z,12.90
2019-04-14T12:08:28.580Z,12.50
2019-04-14T12:10:57.218Z,12.20
2019-04-14T12:13:25.703Z,11.80
2019-04-14T12:15:54.284Z,11.70
2019-04-14T12:18:22.892Z,11.80
2019-04-14T12:20:51.484Z,11.80
2019-04-14T12:23:20.039Z,11.90
2019-04-14T12:25:48.796Z,11.90
2019-04-14T12:28:17.441Z,11.80
2019-04-14T12:30:46.820Z,11.70
2019-04-14T12:33:15.958Z,11.50
2019-04-14T12:35:44.729Z,11.20
2019-04-14T12:38:13.328Z,11.10
2019-04-14T12:40:42.517Z,11.20
2019-04-14T12:43:31.043Z,11.10
2019-04-14T12:46:16.484Z,11.10
2019-04-14T12:48:49.499Z,11.00
2019-04-14T12:51:20.667Z,11.00
2019-04-14T12:53:49.297Z,11.00
2019-04-14T12:56:19.506Z,10.70
2019-04-14T12:58:56.185Z,10.60
2019-04-14T13:01:26.381Z,10.60
2019-04-14T13:03:55.131Z,10.70
2019-04-14T13:06:23.689Z,10.60
2019-04-14T13:08:52.276Z,10.70
2019-04-14T13:11:20.866Z,10.70
2019-04-14T13:13:49.446Z,10.60
2019-04-14T13:16:18.016Z,10.80
2019-04-14T13:18:46.568Z,10.80
2019-04-14T13:21:15.147Z,10.80
2019-04-14T13:23:43.699Z,10.60
2019-04-14T13:26:12.379Z,10.40
2019-04-14T13:28:40.932Z,10.40
2019-04-14T13:31:10.006Z,10.30
2019-04-14T13:33:38.619Z,10.30
2019-04-14T13:36:07.347Z,10.30
2019-04-14T13:38:35.964Z,10.50
2019-04-14T13:41:04.775Z,10.60
2019-04-14T13:43:33.349Z,10.60
2019-04-14T13:46:01.904Z,10.60
2019-04-14T13:48:30.503Z,10.30
2019-04-14T13:50:59.099Z,10.20
2019-04-14T13:53:27.811Z,10.20
2019-04-14T13:55:56.500Z,10.00
2019-04-14T13:58:25.074Z,10.00
2019-04-14T14:00:53.655Z,10.20
2019-04-14T14:03:22.235Z,10.40
2019-04-14T14:05:50.864Z,10.60
2019-04-14T14:08:19.463Z,10.70
2019-04-14T14:10:48.193Z,10.90
2019-04-14T14:13:30.374Z,11.00
2019-04-14T14:16:06.791Z,11.10
2019-04-14T14:18:40.142Z,11.10
2019-04-14T14:21:10.417Z,11.10
2019-04-14T14:23:43.656Z,10.80
2019-04-14T14:26:30.436Z,10.70
2019-04-14T14:28:59.036Z,10.50
2019-04-14T14:31:27.687Z,10.50
2019-04-14T14:33:56.411Z,10.60
2019-04-14T14:36:24.992Z,10.60
2019-04-14T14:38:53.555Z,10.60
2019-04-14T14:41:22.208Z,10.60
2019-04-14T14:43:50.773Z,10.70
2019-04-14T14:46:26.749Z,10.60
2019-04-14T14:48:57.331Z,10.50
2019-04-14T14:51:45.831Z,10.40
2019-04-14T14:54:14.461Z,10.40
2019-04-14T14:56:43.035Z,10.40
2019-04-14T14:59:11.596Z,10.50
2019-04-14T15:01:40.240Z,10.50
2019-04-14T15:04:09.037Z,10.50
2019-04-14T15:06:37.614Z,10.20
2019-04-14T15:09:07.615Z,10.00
2019-04-14T15:11:36.347Z,9.80
2019-04-14T15:14:07.021Z,9.80
2019-04-14T15:16:36.027Z,9.80
2019-04-14T15:19:04.737Z,9.80
2019-04-14T15:21:33.310Z,9.70
2019-04-14T15:24:01.883Z,9.70
2019-04-14T15:26:30.440Z,9.70
2019-04-14T15:28:59.364Z,9.80
2019-04-14T15:31:28.003Z,9.80
2019-04-14T15:33:56.582Z,9.80
2019-04-14T15:36:25.216Z,9.80
2019-04-14T15:38:53.860Z,9.80
2019-04-14T15:41:22.416Z,9.80
2019-04-14T15:43:51.075Z,9.70
2019-04-14T15:46:19.580Z,9.70
2019-04-14T15:48:48.119Z,9.70
2019-04-14T15:51:16.690Z,9.70
2019-04-14T15:53:45.315Z,9.60
2019-04-14T15:56:15.527Z,9.60
2019-04-14T15:58:51.747Z,9.70
2019-04-14T16:01:24.674Z,9.70
2019-04-14T16:04:10.167Z,9.50
2019-04-14T16:06:49.560Z,9.40
2019-04-14T16:09:29.054Z,9.20
2019-04-14T16:12:02.014Z,9.10
2019-04-14T16:14:41.112Z,8.90
2019-04-14T16:17:11.661Z,8.90
2019-04-14T16:19:48.047Z,8.80
2019-04-14T16:22:16.635Z,8.70
2019-04-14T16:24:45.231Z,8.70
2019-04-14T16:27:28.733Z,8.70
2019-04-14T16:30:11.155Z,8.70
2019-04-14T16:32:44.034Z,8.60
2019-04-14T16:35:14.223Z,8.60
2019-04-14T16:37:42.806Z,8.60
2019-04-14T16:40:11.648Z,8.60
2019-04-14T16:42:40.219Z,8.60
2019-04-14T16:45:09.084Z,8.60
2019-04-14T16:47:37.739Z,8.60
2019-04-14T16:50:06.535Z,8.50
2019-04-14T16:52:36.762Z,8.40
2019-04-14T16:55:13.956Z,8.30
2019-04-14T16:58:00.914Z,8.20
2019-04-14T17:00:33.889Z,8.20
2019-04-14T17:03:02.455Z,8.10
2019-04-14T17:05:31.031Z,8.10
2019-04-14T17:07:59.575Z,8.20
2019-04-14T17:10:28.179Z,8.20
2019-04-14T17:12:57.031Z,8.10
2019-04-14T17:15:30.291Z,8.10
2019-04-14T17:18:06.506Z,8.10
2019-04-14T17:20:42.771Z,8.10
2019-04-14T17:23:15.658Z,8.00
2019-04-14T17:25:55.087Z,8.00
2019-04-14T17:28:25.347Z,7.90
2019-04-14T17:31:11.857Z,7.80
2019-04-14T17:33:44.667Z,7.70
2019-04-14T17:36:32.984Z,7.60
2019-04-14T17:39:03.328Z,7.50
2019-04-14T17:41:51.912Z,7.40
2019-04-14T17:44:25.024Z,7.40
2019-04-14T17:46:55.227Z,7.30
2019-04-14T17:49:31.454Z,7.30
2019-04-14T17:52:18.028Z,7.20
2019-04-14T17:54:48.499Z,7.10
2019-04-14T17:57:18.694Z,7.10
2019-04-14T18:00:05.126Z,7.00
2019-04-14T18:02:35.363Z,6.90
2019-04-14T18:05:06.505Z,6.90
2019-04-14T18:07:49.002Z,6.80
2019-04-14T18:10:22.139Z,6.80
2019-04-14T18:12:52.670Z,6.70
2019-04-14T18:15:25.382Z,6.60
2019-04-14T18:18:12.003Z,6.50
2019-04-14T18:20:48.034Z,6.40
2019-04-14T18:23:16.913Z,6.40
2019-04-14T18:25:45.466Z,6.30
2019-04-14T18:28:15.672Z,6.10
2019-04-14T18:30:45.893Z,6.00
2019-04-14T18:33:32.579Z,5.90
2019-04-14T18:36:08.523Z,5.80
2019-04-14T18:38:38.793Z,5.80
2019-04-14T18:41:25.651Z,5.70
2019-04-14T18:43:58.895Z,5.60
2019-04-14T18:46:29.104Z,5.60
2019-04-14T18:49:17.076Z,5.50
2019-04-14T18:51:52.979Z,5.60
2019-04-14T18:54:29.183Z,5.60
2019-04-14T18:57:08.505Z,5.50
2019-04-14T18:59:48.509Z,5.50
2019-04-14T19:02:17.620Z,5.40
2019-04-14T19:04:46.245Z,5.40
2019-04-14T19:07:14.825Z,5.40
2019-04-14T19:09:43.491Z,5.30
2019-04-14T19:12:16.575Z,5.20
2019-04-14T19:14:45.137Z,5.10
2019-04-14T19:17:17.228Z,5.00
2019-04-14T19:20:00.893Z,5.00
2019-04-14T19:22:20.328Z,4.90
2019-04-14T19:24:48.971Z,4.90
2019-04-14T19:27:17.542Z,4.90
2019-04-14T19:29:46.144Z,4.90
2019-04-14T19:32:14.724Z,4.90
2019-04-14T19:34:43.541Z,4.90
2019-04-14T19:37:12.134Z,4.90
2019-04-14T19:39:40.772Z,4.80
2019-04-14T19:42:09.349Z,4.80
2019-04-14T19:44:37.944Z,4.90
2019-04-14T19:47:06.850Z,4.80
2019-04-14T19:49:35.443Z,4.80
2019-04-14T19:52:04.017Z,4.70
2019-04-14T19:54:32.612Z,4.70
2019-04-14T19:57:01.274Z,4.70
2019-04-14T19:59:29.838Z,4.70
2019-04-14T20:01:58.412Z,4.60
2019-04-14T20:04:27.252Z,4.70
2019-04-14T20:06:55.949Z,4.60
2019-04-14T20:09:24.533Z,4.60
2019-04-14T20:11:53.201Z,4.60
2019-04-14T20:14:21.844Z,4.60
2019-04-14T20:17:08.305Z,4.60
2019-04-14T20:19:56.937Z,4.60
2019-04-14T20:22:27.369Z,4.60
2019-04-14T20:25:00.397Z,4.60
2019-04-14T20:27:30.784Z,4.50
2019-04-14T20:30:03.837Z,4.50
2019-04-14T20:32:34.279Z,4.30
2019-04-14T20:35:03.383Z,4.30
2019-04-14T20:37:32.065Z,4.40
2019-04-14T20:40:00.692Z,4.30
2019-04-14T20:42:29.309Z,4.30
2019-04-14T20:44:57.973Z,4.30
2019-04-14T20:47:26.547Z,4.40
2019-04-14T20:49:55.208Z,4.40
2019-04-14T20:52:23.764Z,4.30
2019-04-14T20:54:52.435Z,4.30
2019-04-14T20:57:21.078Z,4.30
2019-04-14T20:59:49.718Z,4.20
2019-04-14T21:02:29.008Z,4.20
2019-04-14T21:05:01.909Z,4.10
2019-04-14T21:07:38.144Z,3.80
2019-04-14T21:10:22.870Z,3.80
2019-04-14T21:12:55.695Z,3.70
2019-04-14T21:15:35.106Z,3.70
2019-04-14T21:18:05.481Z,3.70
2019-04-14T21:20:35.696Z,3.80
2019-04-14T21:23:21.241Z,3.90
2019-04-14T21:26:00.792Z,3.90
2019-04-14T21:28:35.760Z,3.90
2019-04-14T21:31:12.034Z,4.00
2019-04-14T21:33:42.234Z,4.00
2019-04-14T21:36:18.325Z,4.00
2019-04-14T21:38:48.472Z,4.00
2019-04-14T21:41:18.685Z,3.90
2019-04-14T21:43:47.268Z,3.90
2019-04-14T21:46:16.020Z,3.80
2019-04-14T21:48:44.612Z,3.80
2019-04-14T21:51:13.192Z,3.80
2019-04-14T21:53:43.225Z,3.80
2019-04-14T21:56:13.490Z,3.80
2019-04-14T21:58:59.277Z,3.70
2019-04-14T22:01:52.972Z,3.80
2019-04-14T22:04:23.842Z,3.70
2019-04-14T22:06:54.099Z,3.70
2019-04-14T22:09:24.456Z,3.70
2019-04-14T22:11:53.278Z,3.60
2019-04-14T22:14:21.868Z,3.60
2019-04-14T22:16:50.449Z,3.60
2019-04-14T22:19:19.481Z,3.50
2019-04-14T22:21:48.064Z,3.40
2019-04-14T22:24:16.774Z,3.40
2019-04-14T22:26:45.363Z,3.30
2019-04-14T22:29:13.993Z,3.30
2019-04-14T22:31:42.583Z,3.30
2019-04-14T22:34:11.232Z,3.30
2019-04-14T22:36:39.803Z,3.40
2019-04-14T22:39:10.147Z,3.30
2019-04-14T22:41:38.737Z,3.30
2019-04-14T22:44:07.378Z,3.20
2019-04-14T22:46:35.949Z,3.20
2019-04-14T22:49:04.681Z,2.90
2019-04-14T22:51:33.253Z,3.00
2019-04-14T22:54:01.952Z,3.10
2019-04-14T22:56:39.068Z,3.10
2019-04-14T22:59:00.742Z,3.00
2019-04-14T23:01:30.950Z,2.90
2019-04-14T23:04:17.479Z,2.90
2019-04-14T23:06:50.175Z,2.90
2019-04-14T23:09:29.488Z,3.00
2019-04-14T23:12:11.844Z,3.10
2019-04-14T23:14:54.342Z,3.10
2019-04-14T23:17:30.753Z,3.10
2019-04-14T23:20:07.292Z,3.10
2019-04-14T23:22:54.021Z,3.00
2019-04-14T23:25:22.726Z,3.00
2019-04-14T23:27:51.249Z,3.00
2019-04-14T23:30:19.983Z,2.90
2019-04-14T23:32:48.571Z,2.80
2019-04-14T23:35:17.122Z,2.80
2019-04-14T23:37:45.784Z,2.70
2019-04-14T23:40:14.545Z,2.90
2019-04-14T23:42:43.132Z,2.80
2019-04-14T23:45:12.043Z,2.80
2019-04-14T23:47:41.110Z,2.80
2019-04-14T23:50:10.040Z,2.80
2019-04-14T23:52:38.766Z,2.80
2019-04-14T23:55:07.541Z,2.70
2019-04-14T23:57:37.839Z,2.60
